ZPPP/KMG METAR and TAF weather

Enter ICAO airport designator
Station Type Date Time Source
ZPPP METAR 2024/05/28 23:00 UTC NOAA

ZPPP 282300Z 20005MPS 9999 FEW009 SCT020 BKN036 18/17 Q1015 NOSIG


Station Type Date Time Source
ZPPP Decoded METAR 2024/05/28 23:00 UTC NOAA

Kunming, China (ZPPP) 25-01N 102-41E 1892M
May 28, 2024 - 07:00 PM EDT / 2024.05.28 2300 UTC
Wind: from the SSW (200 degrees) at 11 MPH (10 KT):0
Visibility: greater than 7 mile(s):0
Sky conditions: mostly cloudy
Temperature: 64 F (18 C)
Dew Point: 62 F (17 C)
Relative Humidity: 93%
Pressure (altimeter): 29.97 in. Hg (1015 hPa)
ob: ZPPP 282300Z 20005MPS 9999 FEW009 SCT020 BKN036 18/17 Q1015 NOSIG
cycle: 23

Station Type Date Time Source
ZPPP TAF 2024/05/28 18:03 UTC NOAA